Time;durP1;ratioP1;P1;durP2;ratioP2;P2;SDS_P1;SDS_P2;PMS_P1;PMS_P2;Temp;Humidity;BMP_temperature;BMP_pressure;BME280_temperature;BME280_humidity;BME280_pressure;Samples;Min_cycle;Max_cycle;Signal;HPM_P1;HPM_P2
2022/06/25 00:01:15;;;;;;;0.50;0.50;;;;;;;14.88;100.00;96491.69;5053211;28;20202;-52
2022/06/25 00:03:42;;;;;;;1.97;0.70;;;;;;;14.86;100.00;96483.03;5055773;28;20642;-51
2022/06/25 00:06:08;;;;;;;0.60;0.60;;;;;;;14.87;100.00;96490.88;5055410;28;20207;-53
2022/06/25 00:08:37;;;;;;;2.40;1.20;;;;;;;14.84;100.00;96493.06;5055973;28;20247;-52
2022/06/25 00:11:06;;;;;;;3.87;1.10;;;;;;;14.81;100.00;96488.88;5055424;28;20289;-52
2022/06/25 00:13:32;;;;;;;4.00;0.70;;;;;;;14.80;100.00;96486.41;5055966;28;20282;-52
2022/06/25 00:15:59;;;;;;;0.80;0.80;;;;;;;14.76;100.00;96490.41;5055693;28;20207;-51
2022/06/25 00:18:26;;;;;;;2.00;0.97;;;;;;;14.77;100.00;96492.88;5055791;28;20290;-51
2022/06/25 00:20:53;;;;;;;2.17;0.90;;;;;;;14.75;100.00;96499.38;5056330;28;20552;-51
2022/06/25 00:23:19;;;;;;;1.13;0.70;;;;;;;14.72;100.00;96495.25;5059678;28;20199;-51
2022/06/25 00:25:46;;;;;;;0.57;0.57;;;;;;;14.83;100.00;96497.53;5055518;28;20214;-52
2022/06/25 00:28:14;;;;;;;1.37;0.70;;;;;;;14.81;100.00;96499.53;5055122;28;20234;-52
2022/06/25 00:30:40;;;;;;;2.93;0.90;;;;;;;14.75;100.00;96491.41;5055081;28;20210;-52
2022/06/25 00:33:07;;;;;;;1.07;0.60;;;;;;;14.70;100.00;96491.91;5055464;28;20267;-52
2022/06/25 00:35:34;;;;;;;1.50;0.70;;;;;;;14.68;100.00;96493.94;5055079;28;20291;-51
2022/06/25 00:38:01;;;;;;;2.00;0.60;;;;;;;14.66;100.00;96495.94;5055108;28;20214;-52
2022/06/25 00:40:27;;;;;;;0.77;0.50;;;;;;;14.68;100.00;96493.94;5054820;28;20607;-51
2022/06/25 00:42:54;;;;;;;1.27;0.77;;;;;;;14.64;100.00;96497.09;5055559;28;20214;-51
2022/06/25 00:45:22;;;;;;;4.27;0.70;;;;;;;14.59;100.00;96494.97;5055586;28;20222;-52
2022/06/25 00:47:48;;;;;;;2.53;1.00;;;;;;;14.58;100.00;96497.78;5054686;28;20754;-52
2022/06/25 00:50:15;;;;;;;2.80;0.63;;;;;;;14.55;100.00;96498.97;5054061;28;20226;-52
2022/06/25 00:52:43;;;;;;;1.90;0.70;;;;;;;14.56;100.00;96494.47;5055207;28;20210;-52
2022/06/25 00:55:11;;;;;;;0.50;0.50;;;;;;;14.49;100.00;96494.31;5055080;28;20203;-52
2022/06/25 00:57:39;;;;;;;1.10;0.70;;;;;;;14.46;100.00;96497.31;5054865;28;20282;-52
2022/06/25 01:00:08;;;;;;;1.70;0.70;;;;;;;14.42;100.00;96488.00;5055013;28;20202;-52
2022/06/25 01:02:36;;;;;;;0.73;0.73;;;;;;;14.42;100.00;96490.69;5055039;28;20562;-52
2022/06/25 01:05:06;;;;;;;0.73;0.70;;;;;;;14.39;100.00;96493.69;5054894;28;20536;-51
2022/06/25 01:07:34;;;;;;;2.00;0.93;;;;;;;14.42;100.00;96498.66;5054945;28;20313;-53
2022/06/25 01:10:01;;;;;;;0.70;0.70;;;;;;;14.37;100.00;96493.88;5054020;28;20223;-52
2022/06/25 01:12:28;;;;;;;0.70;0.70;;;;;;;14.37;100.00;96485.88;5053847;28;21367;-52
2022/06/25 01:15:01;;;;;;;2.63;0.60;;;;;;;14.39;100.00;96494.50;5054740;28;20218;-52
2022/06/25 01:17:29;;;;;;;0.60;0.60;;;;;;;14.37;100.00;96493.03;5054383;28;20210;-52
2022/06/25 01:19:58;;;;;;;0.70;0.70;;;;;;;14.37;100.00;96498.34;5053734;28;20203;-52
2022/06/25 01:22:26;;;;;;;1.70;0.70;;;;;;;14.37;100.00;96493.03;5054446;28;20207;-51
2022/06/25 01:24:54;;;;;;;0.73;0.60;;;;;;;14.36;100.00;96499.34;5053614;28;20210;-52
2022/06/25 01:27:20;;;;;;;0.90;0.80;;;;;;;14.34;100.00;96490.72;5053459;28;20317;-52
2022/06/25 01:29:47;;;;;;;1.70;0.70;;;;;;;14.31;100.00;96497.16;5053866;28;20211;-52
2022/06/25 01:32:15;;;;;;;0.80;0.80;;;;;;;14.31;100.00;96491.84;5053544;28;20211;-52
2022/06/25 01:34:42;;;;;;;3.20;0.87;;;;;;;14.35;100.00;96490.53;5052838;28;20207;-52
2022/06/25 01:37:08;;;;;;;1.17;1.03;;;;;;;14.42;100.00;96485.34;5053345;28;20293;-52
2022/06/25 01:39:36;;;;;;;1.07;1.00;;;;;;;14.36;100.00;96499.34;5053437;28;20293;-52
2022/06/25 01:42:03;;;;;;;0.80;0.80;;;;;;;14.36;100.00;96499.34;5054255;28;20685;-52
2022/06/25 01:44:30;;;;;;;2.03;1.03;;;;;;;14.35;100.00;96495.00;5053443;28;20531;-51
2022/06/25 01:46:57;;;;;;;3.20;1.10;;;;;;;14.32;100.00;96488.19;5053818;28;20221;-52
2022/06/25 01:49:24;;;;;;;2.17;0.83;;;;;;;14.30;100.00;96486.69;5053581;28;20287;-52
2022/06/25 01:51:50;;;;;;;1.90;0.90;;;;;;;14.39;100.00;96488.34;5054094;28;20199;-52
2022/06/25 01:54:17;;;;;;;1.60;0.70;;;;;;;14.36;100.00;96491.38;5054271;28;20546;-50
2022/06/25 01:56:45;;;;;;;1.97;1.00;;;;;;;14.33;100.00;96494.34;5054027;28;20342;-52
2022/06/25 01:59:11;;;;;;;1.67;1.07;;;;;;;14.32;100.00;96496.16;5054148;28;20214;-52
2022/06/25 02:01:38;;;;;;;1.80;0.97;;;;;;;14.34;100.00;96502.19;5053867;28;20211;-51
2022/06/25 02:04:05;;;;;;;2.17;0.97;;;;;;;14.31;100.00;96491.03;5054158;28;20298;-51
2022/06/25 02:06:31;;;;;;;1.20;1.10;;;;;;;14.32;100.00;96493.50;5053790;28;20203;-52
2022/06/25 02:08:58;;;;;;;1.27;0.80;;;;;;;14.30;100.00;96494.69;5054566;28;20223;-52
2022/06/25 02:11:25;;;;;;;0.70;0.70;;;;;;;14.29;100.00;96493.00;5053824;28;20199;-51
2022/06/25 02:13:53;;;;;;;1.40;0.90;;;;;;;14.34;100.00;96491.56;5054355;28;20287;-52
2022/06/25 02:16:20;;;;;;;1.10;1.10;;;;;;;14.33;100.00;96491.69;5053186;28;20218;-52
2022/06/25 02:18:46;;;;;;;0.70;0.70;;;;;;;14.25;100.00;96497.00;5052634;28;20205;-51
2022/06/25 02:21:13;;;;;;;0.80;0.80;;;;;;;14.21;100.00;96493.00;5052796;28;20598;-51
2022/06/25 02:23:40;;;;;;;2.43;0.90;;;;;;;14.19;100.00;96492.38;5052802;28;20225;-51
2022/06/25 02:26:08;;;;;;;1.80;0.87;;;;;;;14.18;100.00;96502.16;5052563;28;20205;-52
2022/06/25 02:28:34;;;;;;;2.73;0.90;;;;;;;14.16;100.00;96508.66;5052112;28;20529;-52
2022/06/25 02:31:02;;;;;;;1.13;0.80;;;;;;;14.17;100.00;96497.84;5052853;28;20207;-52
2022/06/25 02:33:29;;;;;;;0.67;0.67;;;;;;;14.15;100.00;96497.19;5052422;28;20300;-52
2022/06/25 02:35:56;;;;;;;0.90;0.90;;;;;;;14.10;100.00;96499.50;5052418;28;20207;-51
2022/06/25 02:38:22;;;;;;;0.80;0.80;;;;;;;14.04;100.00;96494.03;5053960;28;20286;-53
2022/06/25 02:40:49;;;;;;;0.50;0.50;;;;;;;14.06;100.00;96503.53;5052576;28;20652;-52
2022/06/25 02:43:16;;;;;;;1.33;0.80;;;;;;;14.09;100.00;96497.03;5052505;28;20644;-52
2022/06/25 02:45:42;;;;;;;1.70;1.03;;;;;;;14.05;100.00;96495.72;5053558;28;20207;-53
2022/06/25 02:48:11;;;;;;;1.63;0.73;;;;;;;14.11;100.00;96505.66;5053896;28;20632;-53
2022/06/25 02:50:38;;;;;;;2.20;0.87;;;;;;;14.07;100.00;96507.84;5053148;28;20235;-52
2022/06/25 02:53:04;;;;;;;0.73;0.73;;;;;;;14.07;100.00;96501.69;5053668;28;20270;-52
2022/06/25 03:00:58;;;;;;;1.17;0.70;;;;;;;14.08;100.00;96513.97;5053174;28;20210;-52
2022/06/25 03:03:26;;;;;;;2.20;0.80;;;;;;;14.07;100.00;96499.03;5053382;28;20194;-52
2022/06/25 03:05:53;;;;;;;1.20;0.60;;;;;;;14.07;100.00;96504.34;5052306;28;20202;-52
2022/06/25 03:08:19;;;;;;;0.80;0.63;;;;;;;14.03;100.00;96513.69;5052551;28;20219;-52
2022/06/25 03:10:46;;;;;;;0.73;0.73;;;;;;;14.04;100.00;96515.31;5052908;28;20206;-52
2022/06/25 03:13:13;;;;;;;1.27;0.97;;;;;;;14.00;100.00;96513.97;5052526;28;20303;-51
2022/06/25 03:15:39;;;;;;;1.47;0.90;;;;;;;14.00;100.00;96506.00;5051788;28;20230;-50
2022/06/25 03:18:06;;;;;;;1.40;0.70;;;;;;;13.97;100.00;96515.16;5052417;28;20199;-51
2022/06/25 03:20:35;;;;;;;1.83;0.63;;;;;;;13.95;100.00;96523.31;5051869;28;20203;-52
2022/06/25 03:23:02;;;;;;;2.30;1.00;;;;;;;13.89;100.00;96528.44;5052452;28;20211;-52
2022/06/25 03:25:29;;;;;;;0.60;0.60;;;;;;;13.88;100.00;96522.31;5052313;28;20207;-52
2022/06/25 03:27:55;;;;;;;1.23;0.90;;;;;;;13.88;100.00;96519.66;5051870;28;20286;-52
2022/06/25 03:30:22;;;;;;;0.70;0.50;;;;;;;13.87;100.00;96525.13;5052224;28;20202;-51
2022/06/25 03:32:49;;;;;;;1.90;0.80;;;;;;;13.87;100.00;96525.97;5052493;28;20203;-52
2022/06/25 03:35:15;;;;;;;1.60;0.70;;;;;;;13.87;100.00;96530.44;5051815;28;20226;-52
2022/06/25 03:37:43;;;;;;;3.73;0.97;;;;;;;13.86;100.00;96528.78;5051897;28;20286;-52
2022/06/25 03:40:12;;;;;;;0.50;0.50;;;;;;;13.88;100.00;96527.63;5050989;28;20207;-51
2022/06/25 03:42:38;;;;;;;0.63;0.60;;;;;;;13.89;100.00;96531.94;5051796;28;20425;-52
2022/06/25 03:45:06;;;;;;;1.23;0.70;;;;;;;13.87;100.00;96518.00;5051954;28;20275;-53
2022/06/25 03:47:32;;;;;;;0.60;0.60;;;;;;;13.92;100.00;96518.31;5052119;28;20266;-52
2022/06/25 03:49:59;;;;;;;0.70;0.70;;;;;;;13.93;100.00;96519.13;5051443;28;20322;-51
2022/06/25 03:52:26;;;;;;;0.97;0.70;;;;;;;13.92;100.00;96515.66;5052291;28;20610;-51
2022/06/25 03:54:54;;;;;;;1.37;0.70;;;;;;;13.95;100.00;96518.00;5051890;28;20195;-51
2022/06/25 03:57:21;;;;;;;2.20;0.83;;;;;;;13.94;100.00;96519.00;5051975;28;20281;-52
2022/06/25 03:59:47;;;;;;;3.30;0.93;;;;;;;13.92;100.00;96510.34;5052030;28;20291;-52
2022/06/25 04:02:14;;;;;;;2.40;0.90;;;;;;;13.90;100.00;96515.00;5051387;28;20294;-52
2022/06/25 04:04:40;;;;;;;2.23;1.20;;;;;;;13.90;100.00;96507.03;5051602;28;20294;-51
2022/06/25 04:07:07;;;;;;;1.73;0.80;;;;;;;13.91;100.00;96511.34;5052135;28;20338;-52
2022/06/25 04:09:33;;;;;;;1.27;0.70;;;;;;;13.94;100.00;96520.81;5052059;28;20219;-51
2022/06/25 04:12:01;;;;;;;0.80;0.80;;;;;;;13.98;100.00;96516.81;5051352;28;20218;-52
2022/06/25 04:14:28;;;;;;;1.80;0.77;;;;;;;14.06;100.00;96510.69;5051887;28;20207;-50
2022/06/25 04:16:55;;;;;;;3.90;1.17;;;;;;;14.18;100.00;96511.97;5051780;28;20275;-52
2022/06/25 04:19:22;;;;;;;0.80;0.80;;;;;;;14.79;100.00;96512.19;5051151;28;20195;-51
2022/06/25 04:21:50;;;;;;;1.20;1.10;;;;;;;14.98;100.00;96518.94;5051428;28;20268;-52
2022/06/25 04:24:17;;;;;;;2.83;1.27;;;;;;;15.32;100.00;96524.75;5051411;28;20254;-51
2022/06/25 04:26:44;;;;;;;2.27;1.17;;;;;;;15.64;100.00;96517.59;5051374;28;20849;-52
2022/06/25 04:29:11;;;;;;;1.13;1.13;;;;;;;15.75;100.00;96527.84;5051982;28;20230;-52
2022/06/25 04:31:39;;;;;;;2.87;1.23;;;;;;;15.83;100.00;96517.97;5051531;28;20627;-52
2022/06/25 04:34:06;;;;;;;1.17;0.80;;;;;;;15.75;100.00;96520.69;5051025;28;20290;-50
2022/06/25 04:36:32;;;;;;;1.83;1.00;;;;;;;15.84;100.00;96519.59;5051635;28;20278;-52
2022/06/25 04:39:01;;;;;;;2.03;1.03;;;;;;;15.91;100.00;96525.88;5051228;28;20636;-52
2022/06/25 04:41:28;;;;;;;0.90;0.83;;;;;;;16.02;100.00;96529.97;5051130;28;20229;-51
2022/06/25 04:43:54;;;;;;;1.67;0.77;;;;;;;16.16;100.00;96529.16;5051442;28;20199;-51
2022/06/25 04:46:22;;;;;;;0.60;0.60;;;;;;;16.11;100.00;96528.06;5050727;28;20591;-51
2022/06/25 04:48:49;;;;;;;1.70;0.70;;;;;;;16.51;100.00;96534.88;5054184;28;20223;-52
2022/06/25 04:51:15;;;;;;;3.73;1.40;;;;;;;16.77;100.00;96538.78;5054405;28;20227;-52
2022/06/25 04:53:55;;;;;;;1.13;1.00;;;;;;;16.71;100.00;96534.19;5054930;28;20227;-52
2022/06/25 04:56:23;;;;;;;2.77;1.50;;;;;;;16.81;100.00;96529.38;5054793;28;20191;-53
2022/06/25 04:58:51;;;;;;;1.60;1.60;;;;;;;16.82;100.00;96543.56;5054490;28;20207;-51
2022/06/25 05:01:18;;;;;;;1.37;1.37;;;;;;;16.64;100.00;96527.91;5054775;28;20215;-52
2022/06/25 05:03:46;;;;;;;2.67;1.50;;;;;;;16.59;100.00;96530.28;5054840;28;20211;-52
2022/06/25 05:06:13;;;;;;;3.03;1.30;;;;;;;16.59;100.00;96535.63;5054694;28;20647;-52
2022/06/25 05:08:40;;;;;;;1.83;1.50;;;;;;;16.58;100.00;96531.28;5054778;28;20559;-52
2022/06/25 05:11:06;;;;;;;1.83;1.73;;;;;;;16.60;100.00;96531.97;5054837;28;21343;-51
2022/06/25 05:13:33;;;;;;;2.70;1.67;;;;;;;16.74;100.00;96533.81;5055074;28;20207;-51
2022/06/25 05:16:00;;;;;;;2.00;1.80;;;;;;;16.91;100.00;96540.63;5054204;28;20218;-51
2022/06/25 05:18:26;;;;;;;2.20;1.93;;;;;;;16.90;100.00;96538.13;5055395;28;20195;-50
2022/06/25 05:20:54;;;;;;;4.40;1.80;;;;;;;17.21;100.00;96540.59;5053616;28;20203;-52
2022/06/25 05:23:21;;;;;;;1.77;1.67;;;;;;;17.37;100.00;96543.88;5054393;28;20739;-52
2022/06/25 05:25:48;;;;;;;2.07;1.97;;;;;;;17.49;100.00;96548.75;5054199;28;20199;-51
2022/06/25 05:28:15;;;;;;;1.95;1.77;;;;;;;17.54;98.71;96543.66;5054576;28;20207;-51
2022/06/25 05:30:42;;;;;;;2.35;2.10;;;;;;;17.65;100.00;96554.72;5054775;28;20218;-51
2022/06/25 05:33:09;;;;;;;6.10;1.88;;;;;;;17.99;100.00;96554.06;5054498;28;20218;-52
2022/06/25 05:35:35;;;;;;;5.53;2.05;;;;;;;18.22;98.71;96551.16;5054176;28;20294;-52
2022/06/25 05:38:03;;;;;;;2.28;2.10;;;;;;;18.43;96.98;96548.47;5054510;28;20226;-52
2022/06/25 05:40:30;;;;;;;2.28;2.08;;;;;;;18.57;95.89;96539.53;5054425;28;20199;-52
2022/06/25 05:42:56;;;;;;;3.67;1.92;;;;;;;18.64;93.05;96540.41;5054453;28;21290;-51
2022/06/25 05:45:23;;;;;;;2.15;1.80;;;;;;;19.02;94.42;96535.50;5054482;28;20324;-52
2022/06/25 05:47:51;;;;;;;3.63;2.42;;;;;;;19.13;91.29;96534.91;5054497;28;20199;-52
2022/06/25 05:50:18;;;;;;;2.65;2.10;;;;;;;19.32;91.52;96538.72;5055435;28;20238;-52
2022/06/25 05:52:45;;;;;;;3.22;1.95;;;;;;;19.55;91.65;96543.81;5056008;28;20218;-54
2022/06/25 05:55:13;;;;;;;3.42;2.15;;;;;;;19.54;88.87;96547.50;5057043;28;20246;-51
2022/06/25 05:57:39;;;;;;;2.10;1.90;;;;;;;19.65;89.25;96545.09;5056580;28;20646;-51
2022/06/25 06:00:08;;;;;;;2.40;2.10;;;;;;;19.79;88.34;96536.03;5056878;28;20271;-51
2022/06/25 06:02:34;;;;;;;1.90;1.80;;;;;;;20.07;88.61;96525.16;5056242;28;20207;-52
2022/06/25 06:05:02;;;;;;;2.53;2.33;;;;;;;20.09;88.67;96527.59;5056190;28;20282;-51
2022/06/25 06:07:29;;;;;;;2.50;2.35;;;;;;;19.94;89.25;96532.34;5055989;28;20234;-51
2022/06/25 06:09:56;;;;;;;2.35;1.90;;;;;;;20.52;88.51;96530.75;5057953;28;20254;-51
2022/06/25 06:12:23;;;;;;;3.42;1.88;;;;;;;20.83;84.68;96522.88;5058893;28;20541;-53
2022/06/25 06:14:50;;;;;;;3.75;1.88;;;;;;;21.03;85.92;96520.13;5058731;28;20655;-51
2022/06/25 06:17:17;;;;;;;2.20;1.40;;;;;;;21.39;83.02;96533.09;5060471;28;20522;-51
2022/06/25 06:19:43;;;;;;;3.80;1.35;;;;;;;21.46;82.13;96518.56;5076823;28;20243;-51
2022/06/25 06:22:10;;;;;;;1.98;1.50;;;;;;;21.36;83.71;96523.59;5078420;28;20202;-52
2022/06/25 06:24:37;;;;;;;1.30;0.80;;;;;;;21.60;79.01;96509.38;5079018;28;20171;-52
2022/06/25 06:27:04;;;;;;;1.48;0.93;;;;;;;21.86;80.24;96519.16;5079016;28;20183;-51
2022/06/25 06:29:32;;;;;;;1.00;0.82;;;;;;;22.27;80.54;96518.72;5078684;28;20247;-52
2022/06/25 06:31:58;;;;;;;2.28;1.00;;;;;;;22.38;75.99;96507.22;5073571;28;20238;-51
2022/06/25 06:34:25;;;;;;;2.20;0.95;;;;;;;22.53;74.51;96509.59;5075755;28;20829;-51
2022/06/25 06:36:51;;;;;;;1.58;1.20;;;;;;;22.69;74.38;96515.28;5078482;28;20258;-52
2022/06/25 06:39:18;;;;;;;2.65;0.93;;;;;;;22.32;75.49;96521.56;5078034;28;20215;-51
2022/06/25 06:41:45;;;;;;;3.05;0.85;;;;;;;22.11;78.11;96511.16;5077929;28;20183;-52
2022/06/25 06:44:11;;;;;;;1.23;1.10;;;;;;;22.49;74.66;96503.81;5062224;28;20869;-53
2022/06/25 06:46:39;;;;;;;4.03;1.50;;;;;;;22.36;75.37;96509.31;5053211;28;20283;-52
2022/06/25 06:49:06;;;;;;;2.05;0.90;;;;;;;22.49;73.17;96503.81;5052524;28;20313;-50
2022/06/25 06:51:32;;;;;;;1.00;0.95;;;;;;;22.67;76.18;96500.38;5052810;28;20267;-51
2022/06/25 06:53:59;;;;;;;0.85;0.85;;;;;;;22.80;71.98;96503.75;5053208;28;20207;-52
2022/06/25 06:56:25;;;;;;;0.73;0.73;;;;;;;22.90;71.58;96497.84;5063975;28;20203;-54
2022/06/25 06:58:53;;;;;;;0.80;0.80;;;;;;;23.04;69.11;96496.66;5056724;28;20290;-53
2022/06/25 07:01:19;;;;;;;2.33;0.90;;;;;;;23.16;67.77;96494.03;5055208;28;20302;-50
2022/06/25 07:03:47;;;;;;;0.95;0.80;;;;;;;23.50;68.81;96496.13;5052363;28;20290;-52
2022/06/25 07:06:14;;;;;;;3.90;1.10;;;;;;;23.56;67.73;96487.13;5052244;28;20282;-52
2022/06/25 07:08:41;;;;;;;0.50;0.50;;;;;;;23.73;71.80;96496.25;5052422;28;20203;-52
2022/06/25 07:11:28;;;;;;;3.28;0.95;;;;;;;23.93;68.14;96487.84;5051409;28;20226;-54
2022/06/25 07:13:54;;;;;;;1.35;0.57;;;;;;;23.94;63.69;96491.38;5051931;28;20199;-53
2022/06/25 07:16:21;;;;;;;0.80;0.77;;;;;;;24.22;65.86;96478.09;5052111;28;20207;-53
2022/06/25 07:18:50;;;;;;;0.65;0.65;;;;;;;24.11;62.53;96478.84;5052035;28;20538;-52
2022/06/25 07:21:17;;;;;;;0.38;0.38;;;;;;;24.53;59.03;96485.88;5052364;28;20203;-53
2022/06/25 07:23:44;;;;;;;0.55;0.55;;;;;;;24.72;60.16;96482.03;5052360;28;20222;-52
2022/06/25 07:26:10;;;;;;;1.30;0.70;;;;;;;24.58;58.21;96475.19;5051862;28;20191;-52
2022/06/25 07:28:37;;;;;;;0.90;0.57;;;;;;;24.58;60.81;96477.91;5051537;28;20533;-52
2022/06/25 07:31:03;;;;;;;2.90;0.60;;;;;;;24.73;60.92;96475.53;5052181;28;20326;-52
2022/06/25 07:33:30;;;;;;;1.65;0.60;;;;;;;24.70;59.19;96475.19;5051684;28;20320;-53
2022/06/25 07:35:58;;;;;;;1.17;0.50;;;;;;;24.87;61.61;96464.53;5051745;28;20199;-52
2022/06/25 07:38:25;;;;;;;1.08;0.60;;;;;;;25.07;58.56;96468.47;5051330;28;20287;-52
2022/06/25 07:40:52;;;;;;;1.40;0.40;;;;;;;25.22;57.62;96476.09;5051216;28;20233;-51
2022/06/25 07:43:19;;;;;;;0.98;0.50;;;;;;;25.20;56.49;96456.56;5051585;28;20290;-52
2022/06/25 07:45:45;;;;;;;0.47;0.43;;;;;;;25.19;54.81;96457.63;5052113;28;20199;-52
2022/06/25 07:48:12;;;;;;;1.55;0.73;;;;;;;25.16;54.17;96458.09;5051524;28;20210;-53
2022/06/25 07:53:25;;;;;;;1.27;0.57;;;;;;;25.68;56.00;96456.22;5049696;28;20203;-53
2022/06/25 07:55:52;;;;;;;1.00;0.32;;;;;;;25.81;53.97;96453.19;5053933;28;20211;-53
2022/06/25 07:58:19;;;;;;;1.55;0.60;;;;;;;25.28;55.72;96448.06;5053044;28;20210;-52
2022/06/25 08:00:45;;;;;;;2.28;0.52;;;;;;;25.72;57.03;96449.22;5051626;28;20266;-52
2022/06/25 08:03:12;;;;;;;2.58;0.40;;;;;;;25.47;55.17;96441.41;5053353;28;20290;-52
2022/06/25 08:05:39;;;;;;;1.73;0.73;;;;;;;25.72;58.52;96438.38;5054943;28;20223;-52
2022/06/25 08:08:05;;;;;;;0.50;0.50;;;;;;;25.94;56.50;96443.94;5053433;28;20229;-53
2022/06/25 08:10:33;;;;;;;0.65;0.55;;;;;;;26.21;52.05;96434.16;5051587;28;20222;-51
2022/06/25 08:13:00;;;;;;;0.80;0.70;;;;;;;26.27;56.78;96444.00;5051377;28;20203;-51
2022/06/25 08:15:27;;;;;;;1.70;0.70;;;;;;;26.31;55.45;96447.03;5051390;28;20225;-51
2022/06/25 08:17:53;;;;;;;2.83;1.15;;;;;;;25.92;56.84;96446.91;5051208;28;20294;-53
2022/06/25 08:20:20;;;;;;;1.38;1.02;;;;;;;26.01;57.71;96442.72;5050968;28;20219;-53
2022/06/25 08:22:47;;;;;;;2.38;1.00;;;;;;;25.88;55.19;96439.50;5054455;28;20289;-53
2022/06/25 08:25:14;;;;;;;2.50;1.05;;;;;;;25.97;56.73;96443.47;5055278;28;20203;-52
2022/06/25 08:27:49;;;;;;;0.98;0.98;;;;;;;25.94;56.83;96441.22;5055774;28;20203;-52
2022/06/25 08:30:17;;;;;;;2.53;1.02;;;;;;;25.98;58.59;96436.94;5055867;28;20218;-54
2022/06/25 08:32:43;;;;;;;0.65;0.50;;;;;;;26.26;52.24;96428.78;5055143;28;20207;-50
2022/06/25 08:35:10;;;;;;;1.02;0.60;;;;;;;26.27;57.79;96433.16;5054988;28;20627;-51
2022/06/25 08:37:37;;;;;;;1.20;0.70;;;;;;;26.21;56.12;96440.38;5054695;28;20191;-52
2022/06/25 08:40:05;;;;;;;1.88;1.00;;;;;;;26.50;55.73;96435.66;5054344;28;20222;-52
2022/06/25 08:42:32;;;;;;;1.00;0.90;;;;;;;26.37;55.61;96422.47;5054594;28;20282;-52
2022/06/25 08:44:59;;;;;;;2.60;1.25;;;;;;;26.60;53.57;96426.88;5054604;28;20210;-53
2022/06/25 08:47:27;;;;;;;1.75;1.20;;;;;;;26.73;53.10;96421.94;5053670;28;20218;-52
2022/06/25 08:49:54;;;;;;;1.48;1.05;;;;;;;26.04;57.68;96425.94;5053107;28;20230;-53
2022/06/25 08:52:22;;;;;;;1.88;1.30;;;;;;;25.95;61.66;96413.06;5052388;28;20589;-53
2022/06/25 08:54:50;;;;;;;1.25;1.20;;;;;;;26.20;59.83;96408.09;5054042;28;20290;-53
2022/06/25 08:57:16;;;;;;;1.25;1.17;;;;;;;26.28;57.61;96412.28;5054255;28;20203;-53
2022/06/25 08:59:43;;;;;;;1.10;1.10;;;;;;;26.24;55.31;96401.13;5054293;28;21599;-54
2022/06/25 09:02:11;;;;;;;2.65;1.60;;;;;;;26.23;55.04;96403.00;5054099;28;20635;-51
2022/06/25 09:04:38;;;;;;;3.05;1.50;;;;;;;26.02;58.20;96397.47;5054582;28;20298;-54
2022/06/25 09:07:12;;;;;;;1.80;1.50;;;;;;;26.19;57.05;96390.19;5061923;28;20211;-51
2022/06/25 09:09:39;;;;;;;1.60;1.50;;;;;;;26.21;56.18;96390.78;5066460;28;20214;-52
2022/06/25 09:12:09;;;;;;;2.67;1.75;;;;;;;26.11;59.07;96398.72;5063901;28;20239;-51
2022/06/25 09:14:37;;;;;;;2.60;1.92;;;;;;;26.37;57.44;96394.50;5055300;28;20202;-53
2022/06/25 09:17:06;;;;;;;2.33;1.80;;;;;;;26.35;58.57;96391.25;5053784;28;20605;-52
2022/06/25 09:19:36;;;;;;;1.77;1.40;;;;;;;26.16;57.79;96394.19;5055056;28;20257;-52
2022/06/25 09:22:04;;;;;;;1.55;1.45;;;;;;;26.06;56.51;96388.59;5054763;28;20271;-52
2022/06/25 09:24:48;;;;;;;1.55;1.45;;;;;;;26.32;60.22;96391.75;5054605;28;20211;-52
2022/06/25 09:27:16;;;;;;;2.80;1.85;;;;;;;26.46;60.49;96393.88;5053997;28;20211;-53
2022/06/25 09:29:44;;;;;;;1.70;1.60;;;;;;;26.45;60.00;96389.50;5054704;28;20212;-52
2022/06/25 09:32:13;;;;;;;1.98;1.80;;;;;;;26.46;58.70;96388.44;5054981;28;20217;-53
2022/06/25 09:34:42;;;;;;;2.13;2.00;;;;;;;26.22;56.74;96384.25;5053624;28;20257;-53
2022/06/25 09:37:19;;;;;;;1.67;1.50;;;;;;;26.57;59.67;96379.34;5053535;28;20199;-52
2022/06/25 09:39:47;;;;;;;2.30;1.35;;;;;;;26.43;56.64;96375.34;5054957;28;20329;-51
2022/06/25 09:42:21;;;;;;;1.40;1.30;;;;;;;26.56;60.22;96372.31;5054012;28;20203;-51
2022/06/25 09:44:47;;;;;;;2.53;1.30;;;;;;;26.74;59.24;96382.06;5054276;28;20210;-52
2022/06/25 09:47:14;;;;;;;3.67;1.52;;;;;;;26.83;57.29;96377.84;5053756;28;20207;-52
2022/06/25 09:49:42;;;;;;;1.55;1.45;;;;;;;26.62;55.85;96386.75;5054333;28;20241;-51
2022/06/25 09:52:09;;;;;;;3.22;2.00;;;;;;;26.53;59.16;96377.41;5053787;28;20584;-53
2022/06/25 09:54:35;;;;;;;3.53;2.58;;;;;;;26.62;57.97;96378.63;5054878;28;20203;-53
2022/06/25 09:57:02;;;;;;;1.33;1.23;;;;;;;26.61;59.96;96371.53;5053484;28;20623;-53
2022/06/25 09:59:32;;;;;;;1.65;1.52;;;;;;;26.53;57.72;96372.00;5053530;28;20231;-52
2022/06/25 10:02:00;;;;;;;1.45;1.17;;;;;;;26.68;57.91;96370.28;5053957;28;20269;-52
2022/06/25 10:04:28;;;;;;;1.20;1.20;;;;;;;26.79;56.12;96365.00;5055304;28;20214;-52
2022/06/25 10:06:56;;;;;;;1.20;1.20;;;;;;;27.02;53.96;96364.81;5054318;28;20207;-52
2022/06/25 10:09:25;;;;;;;1.30;1.20;;;;;;;26.99;55.90;96368.84;5052143;28;20519;-51
2022/06/25 10:11:52;;;;;;;2.65;1.30;;;;;;;26.84;57.43;96367.81;5053689;28;20290;-51
2022/06/25 10:14:19;;;;;;;2.00;1.48;;;;;;;27.14;56.39;96360.88;5053202;28;20214;-52
2022/06/25 10:16:45;;;;;;;1.10;0.90;;;;;;;27.37;58.85;96359.78;5054177;28;20191;-52
2022/06/25 10:19:12;;;;;;;1.50;1.20;;;;;;;27.37;53.23;96357.06;5053262;28;20233;-52
2022/06/25 10:21:40;;;;;;;1.35;1.25;;;;;;;27.24;52.67;96351.22;5053532;28;20261;-53
2022/06/25 10:24:08;;;;;;;2.53;1.23;;;;;;;27.05;54.96;96353.44;5068385;28;20218;-52
2022/06/25 10:26:36;;;;;;;1.30;1.20;;;;;;;26.98;54.72;96347.38;5068642;28;20238;-53
2022/06/25 10:29:03;;;;;;;1.25;1.15;;;;;;;26.72;55.60;96349.72;5070987;28;20227;-53
2022/06/25 10:31:30;;;;;;;0.80;0.80;;;;;;;26.87;55.87;96346.44;5059852;28;20318;-52
2022/06/25 10:33:59;;;;;;;0.90;0.90;;;;;;;27.01;52.24;96338.72;5053724;28;20281;-51
2022/06/25 10:36:43;;;;;;;1.52;1.42;;;;;;;27.19;53.90;96330.25;5051722;28;20211;-53
2022/06/25 10:39:39;;;;;;;0.95;0.93;;;;;;;27.44;56.57;96330.50;5053169;28;20540;-53
2022/06/25 10:45:09;;;;;;;0.82;0.82;;;;;;;27.81;50.97;96324.38;5051806;28;20206;-51
2022/06/25 10:47:39;;;;;;;1.27;1.17;;;;;;;27.73;49.77;96322.13;5053399;28;20199;-52
2022/06/25 10:50:29;;;;;;;0.90;0.90;;;;;;;27.57;50.19;96321.16;5052840;28;20241;-52
2022/06/25 10:53:22;;;;;;;1.17;0.80;;;;;;;27.89;51.48;96310.28;5052826;28;20226;-52
2022/06/25 10:56:18;;;;;;;0.95;0.82;;;;;;;28.03;50.40;96301.41;5053174;28;20699;-53
2022/06/25 10:58:47;;;;;;;1.35;0.70;;;;;;;28.31;50.24;96296.72;5052891;28;20203;-51
2022/06/25 11:01:21;;;;;;;1.30;1.20;;;;;;;28.30;49.09;96290.50;5052781;28;20620;-53
2022/06/25 11:03:52;;;;;;;1.42;0.98;;;;;;;27.86;44.70;96298.03;5052805;28;20289;-51
2022/06/25 11:06:20;;;;;;;0.50;0.50;;;;;;;27.99;47.86;96292.16;5051675;28;20295;-51
2022/06/25 11:08:47;;;;;;;1.35;1.25;;;;;;;28.26;46.69;96294.81;5052941;28;20204;-52
2022/06/25 11:11:25;;;;;;;1.38;0.80;;;;;;;27.47;47.09;96286.56;5052999;28;20272;-52
2022/06/25 11:13:51;;;;;;;0.90;0.90;;;;;;;26.91;50.38;96287.03;5053487;28;20191;-53
2022/06/25 11:16:20;;;;;;;1.10;1.00;;;;;;;26.83;50.78;96290.19;5056595;28;20207;-53
2022/06/25 11:18:48;;;;;;;0.75;0.70;;;;;;;27.14;49.52;96282.13;5074043;28;20267;-52
2022/06/25 11:21:29;;;;;;;1.85;0.95;;;;;;;27.30;49.51;96283.13;5072194;28;20278;-53
2022/06/25 11:24:06;;;;;;;1.00;0.90;;;;;;;27.67;49.32;96270.44;5065894;28;20203;-52
2022/06/25 11:29:21;;;;;;;1.02;0.90;;;;;;;28.00;44.49;96279.38;5053933;28;20827;-52
2022/06/25 11:31:50;;;;;;;1.35;0.60;;;;;;;28.05;47.12;96279.41;5054100;28;20233;-52
2022/06/25 11:34:21;;;;;;;0.98;0.98;;;;;;;27.95;44.64;96280.16;5054033;28;20213;-53
2022/06/25 11:36:58;;;;;;;1.40;1.30;;;;;;;28.13;44.85;96276.22;5053885;28;20290;-54
2022/06/25 11:39:25;;;;;;;1.45;0.90;;;;;;;28.17;43.81;96274.63;5053121;28;20183;-53
2022/06/25 11:41:54;;;;;;;2.28;0.80;;;;;;;28.34;45.54;96264.38;5060503;28;20195;-51
2022/06/25 11:44:21;;;;;;;0.77;0.70;;;;;;;28.48;44.35;96262.84;5062656;28;20230;-52
2022/06/25 11:46:49;;;;;;;2.00;0.75;;;;;;;28.49;44.52;96272.63;5058278;28;20231;-54